Mountain Village, Colorado
Current Conditions -  °F | °C
As of 6:15 PM on Monday 20 Oct 2014 (Local Time) from KTEX Reporting Station
Clear Clear  
Wind Chill: 52°   Ceiling: Unl
Heat Index: 52°   Visibility: 10mi
Dew Point: 34°   Wind: 3mph
Humidity: 51%   Direction: 200°SSW
Pressure: 30.3"   Gusts: NA
Location:  37.9189°N, 107.878°W
Report Text: KTEX 210015Z AUTO 20003KT 10SM CLR 11/01 A3030 RMK AO2 T01100012
Loading
Personal Weather Stations






























Interactive Weather Map
Tropical Storm Tracking
New forecast layout! Learn more

10-Day Weather Forecast

Advertisements
Track Severe Weather on mobile